sensor_id;sensor_type;location;lat;lon;timestamp;pressure;altitude;pressure_sealevel;temperature;humidity
78198;BME280;67472;51.554;7.812;2024-02-28T00:01:25;101102.06;;;1.78;100.00
78198;BME280;67472;51.554;7.812;2024-02-28T00:04:11;101109.25;;;1.71;100.00
78198;BME280;67472;51.554;7.812;2024-02-28T00:07:02;101098.22;;;1.87;100.00
78198;BME280;67472;51.554;7.812;2024-02-28T00:09:49;101106.81;;;1.89;100.00
78198;BME280;67472;51.554;7.812;2024-02-28T00:12:36;101101.56;;;1.90;100.00
78198;BME280;67472;51.554;7.812;2024-02-28T00:15:22;101106.66;;;1.93;100.00
78198;BME280;67472;51.554;7.812;2024-02-28T00:18:09;101109.63;;;1.84;100.00
78198;BME280;67472;51.554;7.812;2024-02-28T00:20:57;101111.09;;;1.91;100.00
78198;BME280;67472;51.554;7.812;2024-02-28T00:24:02;101109.44;;;1.89;100.00
78198;BME280;67472;51.554;7.812;2024-02-28T00:26:50;101110.75;;;1.77;100.00
78198;BME280;67472;51.554;7.812;2024-02-28T00:29:37;101118.72;;;1.74;100.00
78198;BME280;67472;51.554;7.812;2024-02-28T00:32:23;101111.06;;;1.69;100.00
78198;BME280;67472;51.554;7.812;2024-02-28T00:35:11;101113.75;;;1.68;100.00
78198;BME280;67472;51.554;7.812;2024-02-28T00:37:58;101120.09;;;1.61;100.00
78198;BME280;67472;51.554;7.812;2024-02-28T00:40:47;101123.38;;;1.66;100.00
78198;BME280;67472;51.554;7.812;2024-02-28T00:43:33;101127.13;;;1.59;100.00
78198;BME280;67472;51.554;7.812;2024-02-28T00:46:20;101132.56;;;1.53;100.00
78198;BME280;67472;51.554;7.812;2024-02-28T00:49:07;101133.41;;;1.53;100.00
78198;BME280;67472;51.554;7.812;2024-02-28T00:51:53;101139.34;;;1.57;100.00
78198;BME280;67472;51.554;7.812;2024-02-28T00:54:39;101147.75;;;1.63;100.00
78198;BME280;67472;51.554;7.812;2024-02-28T00:57:27;101143.88;;;1.52;100.00
78198;BME280;67472;51.554;7.812;2024-02-28T01:00:14;101146.56;;;1.50;100.00
78198;BME280;67472;51.554;7.812;2024-02-28T01:03:03;101128.84;;;1.37;100.00
78198;BME280;67472;51.554;7.812;2024-02-28T01:05:50;101142.53;;;1.42;100.00
78198;BME280;67472;51.554;7.812;2024-02-28T01:08:36;101148.66;;;1.41;100.00
78198;BME280;67472;51.554;7.812;2024-02-28T01:11:23;101152.84;;;1.45;100.00
78198;BME280;67472;51.554;7.812;2024-02-28T01:14:11;101153.53;;;1.27;100.00
78198;BME280;67472;51.554;7.812;2024-02-28T01:16:57;101153.97;;;1.14;100.00
78198;BME280;67472;51.554;7.812;2024-02-28T01:19:44;101163.63;;;1.34;100.00
78198;BME280;67472;51.554;7.812;2024-02-28T01:22:30;101159.06;;;1.18;100.00
78198;BME280;67472;51.554;7.812;2024-02-28T01:25:16;101156.22;;;1.24;100.00
78198;BME280;67472;51.554;7.812;2024-02-28T01:28:04;101153.06;;;1.39;100.00
78198;BME280;67472;51.554;7.812;2024-02-28T01:30:52;101141.72;;;1.40;100.00
78198;BME280;67472;51.554;7.812;2024-02-28T01:33:40;101144.09;;;1.46;100.00
78198;BME280;67472;51.554;7.812;2024-02-28T01:36:26;101143.66;;;1.58;100.00
78198;BME280;67472;51.554;7.812;2024-02-28T01:39:16;101141.47;;;1.69;100.00
78198;BME280;67472;51.554;7.812;2024-02-28T01:42:03;101133.84;;;1.64;100.00
78198;BME280;67472;51.554;7.812;2024-02-28T01:44:51;101148.31;;;1.71;100.00
78198;BME280;67472;51.554;7.812;2024-02-28T01:47:39;101151.38;;;1.83;100.00
78198;BME280;67472;51.554;7.812;2024-02-28T01:50:26;101144.16;;;1.67;100.00
78198;BME280;67472;51.554;7.812;2024-02-28T01:53:13;101142.16;;;1.74;100.00
78198;BME280;67472;51.554;7.812;2024-02-28T01:56:06;101140.09;;;1.82;100.00
78198;BME280;67472;51.554;7.812;2024-02-28T01:58:56;101130.19;;;1.68;100.00
78198;BME280;67472;51.554;7.812;2024-02-28T02:01:43;101134.31;;;1.52;100.00
78198;BME280;67472;51.554;7.812;2024-02-28T02:04:34;101132.81;;;1.47;100.00
78198;BME280;67472;51.554;7.812;2024-02-28T02:07:20;101130.63;;;1.58;100.00
78198;BME280;67472;51.554;7.812;2024-02-28T02:10:08;101127.91;;;1.39;100.00
78198;BME280;67472;51.554;7.812;2024-02-28T02:13:04;101130.25;;;1.45;100.00
78198;BME280;67472;51.554;7.812;2024-02-28T02:15:50;101150.47;;;1.39;100.00
78198;BME280;67472;51.554;7.812;2024-02-28T02:18:37;101157.81;;;1.51;100.00
78198;BME280;67472;51.554;7.812;2024-02-28T02:21:29;101158.50;;;1.78;100.00
78198;BME280;67472;51.554;7.812;2024-02-28T02:24:17;101162.53;;;1.63;100.00
78198;BME280;67472;51.554;7.812;2024-02-28T02:27:05;101164.31;;;1.62;100.00
78198;BME280;67472;51.554;7.812;2024-02-28T02:29:52;101157.59;;;1.79;100.00
78198;BME280;67472;51.554;7.812;2024-02-28T02:32:38;101159.53;;;1.74;100.00
78198;BME280;67472;51.554;7.812;2024-02-28T02:35:24;101166.06;;;1.84;100.00
78198;BME280;67472;51.554;7.812;2024-02-28T02:38:11;101161.34;;;1.93;100.00
78198;BME280;67472;51.554;7.812;2024-02-28T02:40:59;101162.56;;;2.06;100.00
78198;BME280;67472;51.554;7.812;2024-02-28T02:43:45;101158.06;;;2.10;100.00
78198;BME280;67472;51.554;7.812;2024-02-28T02:46:31;101162.38;;;2.11;100.00
78198;BME280;67472;51.554;7.812;2024-02-28T02:49:18;101154.94;;;2.02;100.00
78198;BME280;67472;51.554;7.812;2024-02-28T02:52:07;101165.97;;;2.08;100.00
78198;BME280;67472;51.554;7.812;2024-02-28T02:54:57;101174.91;;;2.01;100.00
78198;BME280;67472;51.554;7.812;2024-02-28T02:57:45;101183.03;;;1.94;100.00
78198;BME280;67472;51.554;7.812;2024-02-28T03:00:45;101173.94;;;2.04;100.00
78198;BME280;67472;51.554;7.812;2024-02-28T03:03:32;101174.53;;;1.89;100.00
78198;BME280;67472;51.554;7.812;2024-02-28T03:06:20;101176.66;;;2.01;100.00
78198;BME280;67472;51.554;7.812;2024-02-28T03:09:13;101176.31;;;2.10;100.00
78198;BME280;67472;51.554;7.812;2024-02-28T03:12:29;101179.84;;;2.09;100.00
78198;BME280;67472;51.554;7.812;2024-02-28T03:15:21;101168.94;;;1.99;100.00
78198;BME280;67472;51.554;7.812;2024-02-28T03:18:08;101156.50;;;1.84;100.00
78198;BME280;67472;51.554;7.812;2024-02-28T03:20:55;101166.59;;;1.70;100.00
78198;BME280;67472;51.554;7.812;2024-02-28T03:23:47;101171.38;;;1.59;100.00
78198;BME280;67472;51.554;7.812;2024-02-28T03:26:34;101178.44;;;1.55;100.00
78198;BME280;67472;51.554;7.812;2024-02-28T03:29:20;101180.38;;;1.50;100.00
78198;BME280;67472;51.554;7.812;2024-02-28T03:32:08;101181.09;;;1.54;100.00
78198;BME280;67472;51.554;7.812;2024-02-28T03:35:15;101191.00;;;1.67;100.00
78198;BME280;67472;51.554;7.812;2024-02-28T03:38:04;101191.06;;;1.66;100.00
78198;BME280;67472;51.554;7.812;2024-02-28T03:40:51;101199.25;;;1.79;100.00
78198;BME280;67472;51.554;7.812;2024-02-28T03:43:37;101213.28;;;1.75;100.00
78198;BME280;67472;51.554;7.812;2024-02-28T03:46:24;101224.28;;;1.83;100.00
78198;BME280;67472;51.554;7.812;2024-02-28T03:49:13;101217.75;;;1.94;100.00
78198;BME280;67472;51.554;7.812;2024-02-28T03:51:59;101213.13;;;2.01;100.00
78198;BME280;67472;51.554;7.812;2024-02-28T03:54:46;101214.88;;;2.00;100.00
78198;BME280;67472;51.554;7.812;2024-02-28T03:57:37;101209.94;;;1.94;100.00
78198;BME280;67472;51.554;7.812;2024-02-28T04:00:23;101210.41;;;2.04;100.00
78198;BME280;67472;51.554;7.812;2024-02-28T04:03:10;101212.28;;;2.00;100.00
78198;BME280;67472;51.554;7.812;2024-02-28T04:05:59;101217.72;;;2.17;100.00
78198;BME280;67472;51.554;7.812;2024-02-28T04:08:46;101213.75;;;2.07;100.00
78198;BME280;67472;51.554;7.812;2024-02-28T04:11:32;101221.56;;;2.07;100.00
78198;BME280;67472;51.554;7.812;2024-02-28T04:14:21;101223.94;;;2.13;100.00
78198;BME280;67472;51.554;7.812;2024-02-28T04:17:08;101230.53;;;2.22;100.00
78198;BME280;67472;51.554;7.812;2024-02-28T04:19:54;101225.00;;;2.29;100.00
78198;BME280;67472;51.554;7.812;2024-02-28T04:22:44;101228.75;;;2.44;100.00
78198;BME280;67472;51.554;7.812;2024-02-28T04:25:30;101227.38;;;2.36;100.00
78198;BME280;67472;51.554;7.812;2024-02-28T04:28:17;101227.34;;;2.37;100.00
78198;BME280;67472;51.554;7.812;2024-02-28T04:31:03;101234.63;;;2.29;100.00
78198;BME280;67472;51.554;7.812;2024-02-28T04:33:50;101238.50;;;2.41;100.00
78198;BME280;67472;51.554;7.812;2024-02-28T04:36:36;101239.22;;;2.22;100.00
78198;BME280;67472;51.554;7.812;2024-02-28T04:39:24;101244.13;;;2.30;100.00
78198;BME280;67472;51.554;7.812;2024-02-28T04:42:18;101247.88;;;2.23;100.00
78198;BME280;67472;51.554;7.812;2024-02-28T04:45:12;101252.16;;;2.24;100.00
78198;BME280;67472;51.554;7.812;2024-02-28T04:47:59;101251.63;;;2.16;100.00
78198;BME280;67472;51.554;7.812;2024-02-28T04:50:45;101262.47;;;2.05;100.00
78198;BME280;67472;51.554;7.812;2024-02-28T04:53:32;101280.28;;;2.16;100.00
78198;BME280;67472;51.554;7.812;2024-02-28T04:56:21;101280.25;;;2.17;100.00
78198;BME280;67472;51.554;7.812;2024-02-28T04:59:08;101268.16;;;2.15;100.00
78198;BME280;67472;51.554;7.812;2024-02-28T05:01:54;101275.75;;;2.21;100.00
78198;BME280;67472;51.554;7.812;2024-02-28T05:04:40;101281.75;;;2.23;100.00
78198;BME280;67472;51.554;7.812;2024-02-28T05:07:27;101288.72;;;2.22;100.00
78198;BME280;67472;51.554;7.812;2024-02-28T05:10:14;101288.38;;;2.32;100.00
78198;BME280;67472;51.554;7.812;2024-02-28T05:13:02;101297.72;;;2.37;100.00
78198;BME280;67472;51.554;7.812;2024-02-28T05:15:51;101299.28;;;2.41;100.00
78198;BME280;67472;51.554;7.812;2024-02-28T05:18:38;101299.69;;;2.31;100.00
78198;BME280;67472;51.554;7.812;2024-02-28T05:21:24;101303.91;;;2.35;100.00
78198;BME280;67472;51.554;7.812;2024-02-28T05:24:13;101317.16;;;2.28;100.00
78198;BME280;67472;51.554;7.812;2024-02-28T05:27:00;101311.84;;;2.32;100.00
78198;BME280;67472;51.554;7.812;2024-02-28T05:29:50;101321.91;;;2.41;100.00
78198;BME280;67472;51.554;7.812;2024-02-28T05:32:36;101325.38;;;2.18;100.00
78198;BME280;67472;51.554;7.812;2024-02-28T05:35:24;101325.09;;;2.25;100.00
78198;BME280;67472;51.554;7.812;2024-02-28T05:38:11;101328.72;;;2.21;100.00
78198;BME280;67472;51.554;7.812;2024-02-28T05:40:58;101338.00;;;2.28;100.00
78198;BME280;67472;51.554;7.812;2024-02-28T05:43:44;101338.59;;;2.35;100.00
78198;BME280;67472;51.554;7.812;2024-02-28T05:46:33;101331.28;;;2.23;100.00
78198;BME280;67472;51.554;7.812;2024-02-28T05:49:21;101337.19;;;2.26;100.00
78198;BME280;67472;51.554;7.812;2024-02-28T05:52:09;101332.19;;;2.22;100.00
78198;BME280;67472;51.554;7.812;2024-02-28T05:54:55;101340.38;;;2.35;100.00
78198;BME280;67472;51.554;7.812;2024-02-28T05:57:42;101335.69;;;2.21;100.00
78198;BME280;67472;51.554;7.812;2024-02-28T06:00:28;101344.75;;;2.34;100.00
78198;BME280;67472;51.554;7.812;2024-02-28T06:03:16;101349.72;;;2.40;100.00
78198;BME280;67472;51.554;7.812;2024-02-28T06:06:03;101351.94;;;2.27;100.00
78198;BME280;67472;51.554;7.812;2024-02-28T06:08:54;101362.31;;;2.29;100.00
78198;BME280;67472;51.554;7.812;2024-02-28T06:11:41;101362.38;;;2.27;100.00
78198;BME280;67472;51.554;7.812;2024-02-28T06:14:27;101356.72;;;2.38;100.00
78198;BME280;67472;51.554;7.812;2024-02-28T06:17:13;101362.03;;;2.37;100.00
78198;BME280;67472;51.554;7.812;2024-02-28T06:20:01;101375.09;;;2.58;100.00
78198;BME280;67472;51.554;7.812;2024-02-28T06:22:47;101368.34;;;2.53;100.00
78198;BME280;67472;51.554;7.812;2024-02-28T06:25:33;101384.44;;;2.64;100.00
78198;BME280;67472;51.554;7.812;2024-02-28T06:28:21;101386.66;;;2.73;100.00
78198;BME280;67472;51.554;7.812;2024-02-28T06:31:11;101384.56;;;2.82;100.00
78198;BME280;67472;51.554;7.812;2024-02-28T06:33:58;101379.78;;;2.72;100.00
78198;BME280;67472;51.554;7.812;2024-02-28T06:36:47;101381.22;;;2.79;100.00
78198;BME280;67472;51.554;7.812;2024-02-28T06:39:42;101367.41;;;2.55;100.00
78198;BME280;67472;51.554;7.812;2024-02-28T06:42:31;101365.56;;;2.57;100.00
78198;BME280;67472;51.554;7.812;2024-02-28T06:45:23;101376.84;;;2.58;100.00
78198;BME280;67472;51.554;7.812;2024-02-28T06:48:10;101381.94;;;2.61;100.00
78198;BME280;67472;51.554;7.812;2024-02-28T06:51:03;101383.16;;;2.74;100.00
78198;BME280;67472;51.554;7.812;2024-02-28T06:54:01;101377.69;;;2.80;100.00
78198;BME280;67472;51.554;7.812;2024-02-28T06:56:53;101386.50;;;2.77;100.00
78198;BME280;67472;51.554;7.812;2024-02-28T06:59:42;101380.19;;;2.83;100.00
78198;BME280;67472;51.554;7.812;2024-02-28T07:02:48;101372.69;;;2.75;100.00
78198;BME280;67472;51.554;7.812;2024-02-28T07:05:37;101369.88;;;2.80;100.00
78198;BME280;67472;51.554;7.812;2024-02-28T07:08:27;101371.28;;;2.89;100.00
78198;BME280;67472;51.554;7.812;2024-02-28T07:11:30;101367.56;;;2.94;100.00
78198;BME280;67472;51.554;7.812;2024-02-28T07:14:19;101369.84;;;2.81;100.00
78198;BME280;67472;51.554;7.812;2024-02-28T07:17:08;101373.88;;;2.89;100.00
78198;BME280;67472;51.554;7.812;2024-02-28T07:20:10;101355.97;;;3.01;100.00
78198;BME280;67472;51.554;7.812;2024-02-28T07:22:57;101360.09;;;3.07;100.00
78198;BME280;67472;51.554;7.812;2024-02-28T07:25:45;101358.47;;;3.04;100.00
78198;BME280;67472;51.554;7.812;2024-02-28T07:28:35;101345.22;;;3.09;100.00
78198;BME280;67472;51.554;7.812;2024-02-28T07:31:21;101348.31;;;3.18;100.00
78198;BME280;67472;51.554;7.812;2024-02-28T07:34:11;101346.53;;;3.19;100.00
78198;BME280;67472;51.554;7.812;2024-02-28T07:37:20;101346.31;;;3.45;100.00
78198;BME280;67472;51.554;7.812;2024-02-28T07:40:07;101346.44;;;3.42;100.00
78198;BME280;67472;51.554;7.812;2024-02-28T07:42:55;101341.84;;;3.47;100.00
78198;BME280;67472;51.554;7.812;2024-02-28T07:45:44;101348.56;;;3.53;100.00
78198;BME280;67472;51.554;7.812;2024-02-28T07:48:31;101334.06;;;3.46;100.00
78198;BME280;67472;51.554;7.812;2024-02-28T07:51:17;101336.38;;;3.53;100.00
78198;BME280;67472;51.554;7.812;2024-02-28T07:54:07;101337.09;;;3.36;100.00
78198;BME280;67472;51.554;7.812;2024-02-28T07:56:53;101339.38;;;3.44;100.00
78198;BME280;67472;51.554;7.812;2024-02-28T07:59:40;101330.03;;;3.38;100.00
78198;BME280;67472;51.554;7.812;2024-02-28T08:02:28;101344.38;;;3.49;100.00
78198;BME280;67472;51.554;7.812;2024-02-28T08:05:18;101333.75;;;3.53;100.00
78198;BME280;67472;51.554;7.812;2024-02-28T08:08:05;101337.00;;;3.58;100.00
78198;BME280;67472;51.554;7.812;2024-02-28T08:10:54;101339.22;;;3.67;100.00
78198;BME280;67472;51.554;7.812;2024-02-28T08:13:40;101336.63;;;3.67;100.00
78198;BME280;67472;51.554;7.812;2024-02-28T08:16:28;101338.38;;;3.67;100.00
78198;BME280;67472;51.554;7.812;2024-02-28T08:19:16;101342.53;;;3.91;100.00
78198;BME280;67472;51.554;7.812;2024-02-28T08:22:03;101343.66;;;4.04;100.00
78198;BME280;67472;51.554;7.812;2024-02-28T08:24:51;101355.81;;;4.05;100.00
78198;BME280;67472;51.554;7.812;2024-02-28T08:27:37;101359.38;;;4.23;100.00
78198;BME280;67472;51.554;7.812;2024-02-28T08:30:24;101349.41;;;4.49;100.00
78198;BME280;67472;51.554;7.812;2024-02-28T08:33:11;101357.06;;;4.71;100.00
78198;BME280;67472;51.554;7.812;2024-02-28T08:36:00;101366.13;;;5.00;100.00
78198;BME280;67472;51.554;7.812;2024-02-28T08:38:46;101371.25;;;5.37;100.00
78198;BME280;67472;51.554;7.812;2024-02-28T08:41:33;101373.25;;;5.49;100.00
78198;BME280;67472;51.554;7.812;2024-02-28T08:44:21;101366.09;;;5.36;100.00
78198;BME280;67472;51.554;7.812;2024-02-28T08:47:08;101359.09;;;5.36;100.00
78198;BME280;67472;51.554;7.812;2024-02-28T08:49:56;101356.63;;;5.33;100.00
78198;BME280;67472;51.554;7.812;2024-02-28T08:52:44;101361.47;;;5.41;100.00
78198;BME280;67472;51.554;7.812;2024-02-28T08:55:30;101357.16;;;5.57;100.00
78198;BME280;67472;51.554;7.812;2024-02-28T08:58:17;101357.91;;;5.76;100.00
78198;BME280;67472;51.554;7.812;2024-02-28T09:01:04;101362.28;;;5.93;100.00
78198;BME280;67472;51.554;7.812;2024-02-28T09:03:51;101354.47;;;6.08;100.00
78198;BME280;67472;51.554;7.812;2024-02-28T09:06:37;101358.69;;;6.11;100.00
78198;BME280;67472;51.554;7.812;2024-02-28T09:09:26;101363.66;;;6.00;100.00
78198;BME280;67472;51.554;7.812;2024-02-28T09:12:12;101360.53;;;5.93;100.00
78198;BME280;67472;51.554;7.812;2024-02-28T09:14:59;101360.09;;;6.01;100.00
78198;BME280;67472;51.554;7.812;2024-02-28T09:17:45;101363.66;;;6.00;100.00
78198;BME280;67472;51.554;7.812;2024-02-28T09:20:32;101356.44;;;5.70;100.00
78198;BME280;67472;51.554;7.812;2024-02-28T09:23:19;101363.69;;;5.83;100.00
78198;BME280;67472;51.554;7.812;2024-02-28T09:26:07;101351.44;;;5.83;100.00
78198;BME280;67472;51.554;7.812;2024-02-28T09:28:53;101357.22;;;5.90;100.00
78198;BME280;67472;51.554;7.812;2024-02-28T09:31:40;101363.06;;;5.95;100.00
78198;BME280;67472;51.554;7.812;2024-02-28T09:34:27;101368.31;;;5.95;100.00
78198;BME280;67472;51.554;7.812;2024-02-28T09:37:13;101364.97;;;6.08;100.00
78198;BME280;67472;51.554;7.812;2024-02-28T09:40:01;101372.72;;;6.10;100.00
78198;BME280;67472;51.554;7.812;2024-02-28T09:42:52;101376.25;;;6.42;100.00
78198;BME280;67472;51.554;7.812;2024-02-28T09:45:40;101375.75;;;6.35;100.00
78198;BME280;67472;51.554;7.812;2024-02-28T09:48:27;101371.69;;;6.45;100.00
78198;BME280;67472;51.554;7.812;2024-02-28T09:51:16;101368.66;;;6.53;100.00
78198;BME280;67472;51.554;7.812;2024-02-28T09:54:06;101359.09;;;6.52;100.00
78198;BME280;67472;51.554;7.812;2024-02-28T09:56:52;101367.78;;;6.68;100.00
78198;BME280;67472;51.554;7.812;2024-02-28T09:59:44;101367.34;;;6.91;100.00
78198;BME280;67472;51.554;7.812;2024-02-28T10:02:31;101359.47;;;7.07;100.00
78198;BME280;67472;51.554;7.812;2024-02-28T10:05:19;101360.03;;;7.12;100.00
78198;BME280;67472;51.554;7.812;2024-02-28T10:08:06;101350.47;;;7.11;100.00
78198;BME280;67472;51.554;7.812;2024-02-28T10:10:54;101346.03;;;7.11;100.00
78198;BME280;67472;51.554;7.812;2024-02-28T10:13:42;101334.81;;;6.94;100.00
78198;BME280;67472;51.554;7.812;2024-02-28T10:16:30;101334.66;;;7.26;100.00
78198;BME280;67472;51.554;7.812;2024-02-28T10:19:16;101335.53;;;7.11;100.00
78198;BME280;67472;51.554;7.812;2024-02-28T10:22:03;101343.47;;;7.69;100.00
78198;BME280;67472;51.554;7.812;2024-02-28T10:24:56;101327.25;;;7.91;100.00
78198;BME280;67472;51.554;7.812;2024-02-28T10:27:43;101310.22;;;8.11;100.00
78198;BME280;67472;51.554;7.812;2024-02-28T10:30:29;101308.00;;;8.33;100.00
78198;BME280;67472;51.554;7.812;2024-02-28T10:33:17;101295.94;;;8.70;100.00
78198;BME280;67472;51.554;7.812;2024-02-28T10:36:06;101288.63;;;8.87;100.00
78198;BME280;67472;51.554;7.812;2024-02-28T10:38:55;101298.84;;;8.65;100.00
78198;BME280;67472;51.554;7.812;2024-02-28T10:41:42;101301.75;;;8.34;100.00
78198;BME280;67472;51.554;7.812;2024-02-28T10:44:29;101310.78;;;8.44;100.00
78198;BME280;67472;51.554;7.812;2024-02-28T10:47:18;101299.81;;;8.64;100.00
78198;BME280;67472;51.554;7.812;2024-02-28T10:50:08;101300.34;;;8.96;100.00
78198;BME280;67472;51.554;7.812;2024-02-28T10:52:59;101299.84;;;9.16;100.00
78198;BME280;67472;51.554;7.812;2024-02-28T10:55:48;101289.56;;;8.86;100.00
78198;BME280;67472;51.554;7.812;2024-02-28T10:58:35;101290.72;;;9.34;100.00
78198;BME280;67472;51.554;7.812;2024-02-28T11:01:24;101274.34;;;9.17;100.00
78198;BME280;67472;51.554;7.812;2024-02-28T11:04:12;101290.69;;;9.22;100.00
78198;BME280;67472;51.554;7.812;2024-02-28T11:07:01;101278.38;;;9.47;100.00
78198;BME280;67472;51.554;7.812;2024-02-28T11:09:53;101288.81;;;9.61;100.00
78198;BME280;67472;51.554;7.812;2024-02-28T11:12:40;101283.41;;;9.76;100.00
78198;BME280;67472;51.554;7.812;2024-02-28T11:15:26;101280.69;;;9.64;100.00
78198;BME280;67472;51.554;7.812;2024-02-28T11:18:13;101252.59;;;9.89;100.00
78198;BME280;67472;51.554;7.812;2024-02-28T11:21:00;101253.56;;;9.75;100.00
78198;BME280;67472;51.554;7.812;2024-02-28T11:23:49;101263.13;;;10.01;100.00
78198;BME280;67472;51.554;7.812;2024-02-28T11:26:38;101241.72;;;9.93;100.00
78198;BME280;67472;51.554;7.812;2024-02-28T11:29:25;101248.41;;;10.10;100.00
78198;BME280;67472;51.554;7.812;2024-02-28T11:32:12;101239.19;;;9.92;100.00
78198;BME280;67472;51.554;7.812;2024-02-28T11:35:00;101242.59;;;10.30;100.00
78198;BME280;67472;51.554;7.812;2024-02-28T11:37:47;101243.22;;;10.34;100.00
78198;BME280;67472;51.554;7.812;2024-02-28T11:40:37;101241.81;;;10.64;100.00
78198;BME280;67472;51.554;7.812;2024-02-28T11:43:23;101232.03;;;10.54;100.00
78198;BME280;67472;51.554;7.812;2024-02-28T11:46:09;101226.09;;;10.74;100.00
78198;BME280;67472;51.554;7.812;2024-02-28T11:48:56;101231.63;;;10.71;100.00
78198;BME280;67472;51.554;7.812;2024-02-28T11:51:43;101214.75;;;10.50;99.05
78198;BME280;67472;51.554;7.812;2024-02-28T11:54:29;101222.09;;;10.57;100.00
78198;BME280;67472;51.554;7.812;2024-02-28T11:57:16;101222.88;;;11.05;98.90
78198;BME280;67472;51.554;7.812;2024-02-28T12:00:04;101202.38;;;10.85;96.57
78198;BME280;67472;51.554;7.812;2024-02-28T12:03:04;101211.97;;;10.86;97.21
78198;BME280;67472;51.554;7.812;2024-02-28T12:05:51;101216.47;;;10.97;96.27
78198;BME280;67472;51.554;7.812;2024-02-28T12:08:38;101220.59;;;10.77;96.46
78198;BME280;67472;51.554;7.812;2024-02-28T12:11:24;101213.84;;;11.08;95.80
78198;BME280;67472;51.554;7.812;2024-02-28T12:14:14;101214.56;;;11.10;95.24
78198;BME280;67472;51.554;7.812;2024-02-28T12:17:01;101207.47;;;11.10;96.27
78198;BME280;67472;51.554;7.812;2024-02-28T12:19:47;101198.00;;;11.08;95.31
78198;BME280;67472;51.554;7.812;2024-02-28T12:22:34;101193.09;;;11.25;93.53
78198;BME280;67472;51.554;7.812;2024-02-28T12:25:20;101190.47;;;11.70;92.92
78198;BME280;67472;51.554;7.812;2024-02-28T12:28:07;101167.00;;;11.87;90.05
78198;BME280;67472;51.554;7.812;2024-02-28T12:30:57;101155.47;;;11.77;88.83
78198;BME280;67472;51.554;7.812;2024-02-28T12:33:44;101136.31;;;11.85;86.63
78198;BME280;67472;51.554;7.812;2024-02-28T12:36:32;101149.78;;;11.82;86.75
78198;BME280;67472;51.554;7.812;2024-02-28T12:39:19;101145.38;;;11.60;86.38
78198;BME280;67472;51.554;7.812;2024-02-28T12:42:08;101147.41;;;11.46;86.26
78198;BME280;67472;51.554;7.812;2024-02-28T12:44:54;101150.63;;;11.94;86.41
78198;BME280;67472;51.554;7.812;2024-02-28T12:47:43;101144.84;;;11.88;86.13
78198;BME280;67472;51.554;7.812;2024-02-28T12:50:29;101129.22;;;11.85;84.76
78198;BME280;67472;51.554;7.812;2024-02-28T12:53:16;101123.50;;;12.12;83.91
78198;BME280;67472;51.554;7.812;2024-02-28T12:56:03;101115.75;;;12.20;82.84
78198;BME280;67472;51.554;7.812;2024-02-28T12:58:50;101118.06;;;12.14;83.35
78198;BME280;67472;51.554;7.812;2024-02-28T13:01:37;101112.38;;;11.86;82.86
78198;BME280;67472;51.554;7.812;2024-02-28T13:04:25;101122.69;;;12.01;83.20
78198;BME280;67472;51.554;7.812;2024-02-28T13:07:13;101116.72;;;12.19;83.05
78198;BME280;67472;51.554;7.812;2024-02-28T13:10:00;101120.28;;;12.29;83.40
78198;BME280;67472;51.554;7.812;2024-02-28T13:12:49;101101.63;;;12.52;81.47
78198;BME280;67472;51.554;7.812;2024-02-28T13:15:36;101094.28;;;13.06;79.89
78198;BME280;67472;51.554;7.812;2024-02-28T13:18:23;101069.53;;;12.96;76.93
78198;BME280;67472;51.554;7.812;2024-02-28T13:21:12;101068.69;;;13.16;75.60
78198;BME280;67472;51.554;7.812;2024-02-28T13:23:58;101130.84;;;12.61;76.40
78198;BME280;67472;51.554;7.812;2024-02-28T13:26:44;101132.53;;;12.41;76.58
78198;BME280;67472;51.554;7.812;2024-02-28T13:29:31;101132.13;;;12.46;77.07
78198;BME280;67472;51.554;7.812;2024-02-28T13:32:17;101134.78;;;12.14;77.26
78198;BME280;67472;51.554;7.812;2024-02-28T13:35:04;101129.13;;;12.19;77.67
78198;BME280;67472;51.554;7.812;2024-02-28T13:37:54;101131.22;;;12.36;78.04
78198;BME280;67472;51.554;7.812;2024-02-28T13:40:45;101120.59;;;12.15;76.41
78198;BME280;67472;51.554;7.812;2024-02-28T13:43:32;101131.53;;;12.42;76.76
78198;BME280;67472;51.554;7.812;2024-02-28T13:46:18;101109.53;;;12.10;75.03
78198;BME280;67472;51.554;7.812;2024-02-28T13:49:04;101117.56;;;11.77;74.76
78198;BME280;67472;51.554;7.812;2024-02-28T13:51:52;101121.66;;;11.59;77.88
78198;BME280;67472;51.554;7.812;2024-02-28T13:54:40;101128.66;;;11.71;77.44
78198;BME280;67472;51.554;7.812;2024-02-28T13:57:26;101127.78;;;11.93;77.24
78198;BME280;67472;51.554;7.812;2024-02-28T14:00:13;101115.09;;;12.07;76.82
78198;BME280;67472;51.554;7.812;2024-02-28T14:03:00;101107.66;;;12.22;76.14
78198;BME280;67472;51.554;7.812;2024-02-28T14:05:47;101110.38;;;12.11;74.63
78198;BME280;67472;51.554;7.812;2024-02-28T14:08:33;101101.84;;;12.07;73.91
78198;BME280;67472;51.554;7.812;2024-02-28T14:11:22;101097.22;;;11.88;72.69
78198;BME280;67472;51.554;7.812;2024-02-28T14:14:10;101087.75;;;11.75;72.10
78198;BME280;67472;51.554;7.812;2024-02-28T14:16:57;101087.25;;;11.59;71.94
78198;BME280;67472;51.554;7.812;2024-02-28T14:19:43;101097.09;;;11.79;73.28
78198;BME280;67472;51.554;7.812;2024-02-28T14:22:31;101088.47;;;11.66;72.98
78198;BME280;67472;51.554;7.812;2024-02-28T14:25:18;101097.72;;;11.82;74.37
78198;BME280;67472;51.554;7.812;2024-02-28T14:28:07;101092.81;;;11.78;73.94
78198;BME280;67472;51.554;7.812;2024-02-28T14:30:53;101093.72;;;11.88;74.14
78198;BME280;67472;51.554;7.812;2024-02-28T14:33:41;101089.91;;;11.81;72.08
78198;BME280;67472;51.554;7.812;2024-02-28T14:36:27;101096.28;;;11.56;73.03
78198;BME280;67472;51.554;7.812;2024-02-28T14:39:15;101090.66;;;11.72;73.66